createdAt,value
2017-10-06T00:02:01.620Z,11.93
2017-10-06T00:07:48.388Z,15.00
2017-10-06T00:13:35.081Z,17.47
2017-10-06T00:19:19.240Z,15.37
2017-10-06T00:25:08.734Z,21.17
2017-10-06T00:30:47.315Z,17.80
2017-10-06T00:36:32.608Z,16.97
2017-10-06T00:42:17.551Z,10.03
2017-10-06T00:48:00.623Z,13.73
2017-10-06T00:53:49.902Z,8.80
2017-10-06T00:59:33.920Z,6.73
2017-10-06T01:05:22.890Z,15.93
2017-10-06T01:11:03.264Z,22.27
2017-10-06T01:16:46.796Z,12.67
2017-10-06T01:22:36.222Z,23.67
2017-10-06T01:28:19.673Z,12.23
2017-10-06T01:34:02.536Z,5.93
2017-10-06T01:39:48.984Z,18.27
2017-10-06T01:45:33.967Z,12.97
2017-10-06T01:51:20.560Z,11.50
2017-10-06T01:57:07.291Z,13.17
2017-10-06T02:02:49.956Z,10.60
2017-10-06T02:08:36.987Z,18.30
2017-10-06T02:14:19.907Z,13.60
2017-10-06T02:20:02.876Z,19.20
2017-10-06T02:25:49.149Z,12.50
2017-10-06T02:31:32.649Z,8.30
2017-10-06T02:37:16.767Z,10.73
2017-10-06T02:43:01.680Z,12.97
2017-10-06T02:48:46.582Z,15.73
2017-10-06T02:54:35.790Z,15.80
2017-10-06T03:00:19.871Z,15.73
2017-10-06T03:06:03.180Z,22.37
2017-10-06T03:11:51.814Z,21.17
2017-10-06T03:17:37.464Z,16.27
2017-10-06T03:23:17.652Z,12.70
2017-10-06T03:29:07.146Z,17.40
2017-10-06T03:34:50.695Z,14.47
2017-10-06T03:40:37.428Z,14.17
2017-10-06T03:46:18.157Z,14.67
2017-10-06T03:52:01.848Z,15.77
2017-10-06T03:57:49.007Z,21.10
2017-10-06T04:03:38.353Z,22.67
2017-10-06T04:09:21.825Z,15.93
2017-10-06T04:15:04.827Z,9.40
2017-10-06T04:20:47.759Z,17.97
2017-10-06T04:26:34.947Z,22.20
2017-10-06T04:32:18.039Z,14.27
2017-10-06T04:38:07.237Z,12.77
2017-10-06T04:43:50.961Z,16.50
2017-10-06T04:49:34.200Z,18.20
2017-10-06T04:55:23.652Z,26.77
2017-10-06T05:01:04.656Z,17.20
2017-10-06T05:06:47.355Z,20.37
2017-10-06T05:12:36.765Z,13.70
2017-10-06T05:18:20.289Z,20.70
2017-10-06T05:24:07.159Z,13.63
2017-10-06T05:29:50.048Z,19.03
2017-10-06T05:35:33.283Z,16.13
2017-10-06T05:41:16.397Z,18.50
2017-10-06T05:47:03.371Z,16.57
2017-10-06T05:52:46.683Z,16.30
2017-10-06T05:58:35.725Z,14.47
2017-10-06T06:04:19.403Z,16.40
2017-10-06T06:10:06.523Z,20.60
2017-10-06T06:15:49.603Z,21.07
2017-10-06T06:21:32.616Z,16.53
2017-10-06T06:27:19.517Z,16.30
2017-10-06T06:33:03.480Z,20.47
2017-10-06T06:38:48.395Z,14.80
2017-10-06T06:44:32.127Z,10.13
2017-10-06T06:50:18.944Z,18.67
2017-10-06T06:56:02.682Z,18.10
2017-10-06T07:01:52.275Z,17.97
2017-10-06T07:07:40.595Z,16.70
2017-10-06T07:13:22.968Z,12.53
2017-10-06T07:19:05.603Z,12.27
2017-10-06T07:24:48.444Z,18.87
2017-10-06T07:30:32.842Z,13.00
2017-10-06T07:36:22.206Z,12.00
2017-10-06T07:42:06.190Z,17.13
2017-10-06T07:47:48.822Z,19.17
2017-10-06T07:53:33.591Z,22.13
2017-10-06T07:59:20.056Z,15.80
2017-10-06T08:05:09.351Z,10.17
2017-10-06T08:10:50.160Z,16.80
2017-10-06T08:16:32.936Z,7.80
2017-10-06T08:22:19.924Z,9.63
2017-10-06T08:28:06.807Z,14.77
2017-10-06T08:33:51.695Z,15.30
2017-10-06T08:39:36.836Z,12.43
2017-10-06T08:45:19.707Z,18.07
2017-10-06T08:51:08.804Z,11.80
2017-10-06T08:56:50.714Z,10.70
2017-10-06T09:02:33.422Z,7.93
2017-10-06T09:08:18.106Z,15.63
2017-10-06T09:14:07.498Z,9.43
2017-10-06T09:19:51.122Z,12.70
2017-10-06T09:25:34.083Z,11.57
2017-10-06T09:31:21.079Z,12.50
2017-10-06T09:37:07.920Z,13.17
2017-10-06T09:42:50.949Z,12.57
2017-10-06T09:48:34.034Z,8.53
2017-10-06T09:54:17.376Z,14.77
2017-10-06T10:00:06.719Z,12.30
2017-10-06T10:05:50.160Z,14.93
2017-10-06T10:11:37.259Z,16.40
2017-10-06T10:17:20.135Z,16.67
2017-10-06T10:23:02.823Z,13.87
2017-10-06T10:28:49.439Z,12.00
2017-10-06T10:34:36.176Z,15.40
2017-10-06T10:40:19.110Z,11.43
2017-10-06T10:46:02.484Z,15.63
2017-10-06T10:51:51.378Z,12.40
2017-10-06T10:57:34.027Z,11.17
2017-10-06T11:03:18.443Z,5.20
2017-10-06T11:09:05.317Z,10.40
2017-10-06T11:14:50.802Z,15.97
2017-10-06T11:20:35.399Z,11.00
2017-10-06T11:26:22.143Z,9.63
2017-10-06T11:32:04.978Z,7.43
2017-10-06T11:37:48.572Z,9.93
2017-10-06T11:43:35.400Z,21.57
2017-10-06T11:49:19.295Z,8.00
2017-10-06T11:55:03.644Z,6.73
2017-10-06T12:00:51.139Z,9.20
2017-10-06T12:06:34.220Z,8.90
2017-10-06T12:12:18.207Z,14.23
2017-10-06T12:18:07.290Z,8.57
2017-10-06T12:23:50.484Z,6.80
2017-10-06T12:29:33.472Z,6.43
2017-10-06T12:35:22.789Z,7.83
2017-10-06T12:41:05.878Z,9.10
2017-10-06T12:46:52.323Z,7.60
2017-10-06T12:52:35.195Z,6.13
2017-10-06T12:58:18.143Z,6.30
2017-10-06T13:04:04.969Z,9.63
2017-10-06T13:09:48.731Z,10.93
2017-10-06T13:15:35.440Z,6.17
2017-10-06T13:21:19.301Z,3.50
2017-10-06T13:27:06.312Z,7.87
2017-10-06T13:32:49.167Z,7.43
2017-10-06T13:38:38.188Z,6.93
2017-10-06T13:44:21.502Z,11.27
2017-10-06T13:50:08.126Z,10.23
2017-10-06T13:55:51.032Z,6.07
2017-10-06T14:01:37.783Z,14.20
2017-10-06T14:07:20.485Z,14.40
2017-10-06T14:13:03.348Z,9.00
2017-10-06T14:18:52.554Z,13.40
2017-10-06T14:24:36.683Z,6.63
2017-10-06T14:30:21.680Z,16.43
2017-10-06T14:36:11.083Z,13.90
2017-10-06T14:41:54.572Z,14.00
2017-10-06T14:47:37.732Z,15.83
2017-10-06T14:53:20.648Z,21.67
2017-10-06T14:59:07.571Z,20.27
2017-10-06T15:04:50.302Z,19.00
2017-10-06T15:10:39.195Z,12.47
2017-10-06T15:16:22.757Z,17.30
2017-10-06T15:22:09.565Z,15.63
2017-10-06T15:27:52.191Z,21.90
2017-10-06T15:33:35.227Z,11.77
2017-10-06T15:39:20.354Z,22.23
2017-10-06T15:45:03.404Z,17.27
2017-10-06T15:50:52.074Z,25.10
2017-10-06T15:56:35.284Z,10.00
2017-10-06T16:02:17.948Z,20.07
2017-10-06T16:08:07.182Z,23.00
2017-10-06T16:13:50.504Z,29.53
2017-10-06T16:19:37.123Z,24.43
2017-10-06T16:25:20.095Z,37.70
2017-10-06T16:31:09.358Z,17.50
2017-10-06T16:36:52.580Z,22.13
2017-10-06T16:42:35.767Z,20.33
2017-10-06T16:48:22.592Z,16.43
2017-10-06T16:54:05.372Z,19.33
2017-10-06T16:59:52.036Z,16.20
2017-10-06T17:46:06.636Z,23.10
2017-10-06T17:51:55.464Z,34.13
2017-10-06T18:50:07.686Z,21.50
2017-10-06T18:55:52.425Z,18.90
2017-10-06T19:01:35.129Z,35.63
2017-10-06T19:07:20.049Z,31.03
2017-10-06T19:13:06.672Z,14.77
2017-10-06T19:18:49.602Z,17.37
2017-10-06T19:24:38.925Z,21.70
2017-10-06T19:30:22.095Z,20.33
2017-10-06T19:36:06.996Z,30.67
2017-10-06T19:41:51.707Z,21.77
2017-10-06T19:47:36.416Z,33.73
2017-10-06T19:53:19.601Z,34.70
2017-10-06T19:59:04.280Z,32.67
2017-10-06T20:04:50.984Z,23.17
2017-10-06T20:10:37.641Z,21.33
2017-10-06T20:16:21.735Z,30.13
2017-10-06T20:22:06.208Z,26.23
2017-10-06T20:27:49.368Z,24.30
2017-10-06T20:33:38.461Z,34.67
2017-10-06T20:39:21.663Z,17.63
2017-10-06T20:45:04.584Z,28.33
2017-10-06T20:50:51.659Z,32.57
2017-10-06T20:56:41.045Z,24.43
2017-10-06T21:02:24.196Z,18.77
2017-10-06T21:08:07.107Z,39.33
2017-10-06T21:13:49.871Z,27.00
2017-10-06T21:19:39.077Z,25.83
2017-10-06T21:25:22.224Z,16.83
2017-10-06T21:31:07.377Z,17.27
2017-10-06T21:36:51.912Z,17.20
2017-10-06T21:42:34.515Z,38.10
2017-10-06T21:48:21.447Z,31.23
2017-10-06T21:54:08.099Z,20.73
2017-10-06T21:59:50.488Z,20.13
2017-10-06T22:05:35.128Z,25.50
2017-10-06T22:11:24.611Z,26.40
2017-10-06T22:17:07.647Z,24.03
2017-10-06T22:22:50.422Z,28.43
2017-10-06T22:28:34.877Z,20.30
2017-10-06T22:34:21.551Z,21.27
2017-10-06T22:40:08.335Z,20.63
2017-10-06T22:45:51.903Z,30.03
2017-10-06T22:51:40.423Z,23.50
2017-10-06T22:57:23.390Z,27.17
2017-10-06T23:03:10.043Z,30.20
2017-10-06T23:08:49.886Z,34.10
2017-10-06T23:14:38.500Z,26.67
2017-10-06T23:20:25.135Z,25.60
2017-10-06T23:26:08.087Z,26.73
2017-10-06T23:31:51.926Z,26.60
2017-10-06T23:37:35.346Z,23.10
2017-10-06T23:43:22.186Z,20.73
2017-10-06T23:49:11.525Z,19.43
2017-10-06T23:54:55.026Z,19.33
